Time;durP1;ratioP1;P1;durP2;ratioP2;P2;SDS_P1;SDS_P2;PMS_P1;PMS_P2;Temp;Humidity;BMP_temperature;BMP_pressure;BME280_temperature;BME280_humidity;BME280_pressure;Samples;Min_cycle;Max_cycle;Signal;HPM_P1;HPM_P2
2022/04/09 00:02:08;;;;;;;9.70;2.40;;;4.10;99.90;;;;;;5012090;28;20398;-86
2022/04/09 00:04:43;;;;;;;14.20;1.83;;;4.10;99.90;;;;;;5011843;28;20584;-88
2022/04/09 00:07:08;;;;;;;;;;;3.70;99.90;;;;;;5012428;28;20081;-86
2022/04/09 00:09:46;;;;;;;9.20;1.40;;;4.10;99.90;;;;;;4994640;28;19926;-86
2022/04/09 00:12:23;;;;;;;8.00;1.45;;;4.10;99.90;;;;;;4994216;28;20042;-84
2022/04/09 00:15:02;;;;;;;12.80;1.40;;;4.90;99.90;;;;;;4993982;28;20054;-86
2022/04/09 00:17:44;;;;;;;11.57;1.90;;;4.00;99.90;;;;;;4977548;28;20042;-90
2022/04/09 00:20:11;;;;;;;9.45;1.42;;;4.30;99.90;;;;;;4993067;28;20061;-85
2022/04/09 00:22:38;;;;;;;11.80;1.63;;;4.30;99.90;;;;;;4977690;28;20106;-84
2022/04/09 00:25:06;;;;;;;6.05;1.02;;;4.10;99.90;;;;;;5012067;28;20735;-86
2022/04/09 00:27:41;;;;;;;7.65;1.50;;;4.10;99.90;;;;;;4993722;28;20121;-88
2022/04/09 00:30:08;;;;;;;;;;;4.90;99.90;;;;;;5011692;28;20390;-85
2022/04/09 00:32:37;;;;;;;7.40;1.50;;;4.20;99.90;;;;;;4993588;28;19971;-86
2022/04/09 00:35:06;;;;;;;5.55;1.30;;;4.60;99.90;;;;;;5053333;23;20104;-85
2022/04/09 00:38:29;;;;;;;8.00;1.40;;;4.20;99.90;;;;;;4991909;28;20050;-88
2022/04/09 00:41:40;;;;;;;4.43;1.00;;;4.20;99.90;;;;;;4990768;28;20058;-87
2022/04/09 00:44:32;;;;;;;3.53;0.80;;;4.30;99.90;;;;;;4931797;29;20419;-86
2022/04/09 00:46:58;;;;;;;3.05;0.60;;;4.00;99.90;;;;;;5115017;23;20494;-86
2022/04/09 00:49:28;;;;;;;4.15;0.55;;;4.50;99.90;;;;;;4958423;28;20053;-88
2022/04/09 00:51:55;;;;;;;8.65;1.05;;;3.90;99.90;;;;;;4958646;28;20058;-86
2022/04/09 00:54:25;;;;;;;7.35;0.80;;;4.00;99.90;;;;;;4992102;28;20557;-85
2022/04/09 00:57:07;;;;;;;8.40;1.20;;;4.50;99.90;;;;;;4974553;28;20056;-86
2022/04/09 00:59:38;;;;;;;7.53;0.88;;;4.00;99.90;;;;;;4958388;28;20054;-86
2022/04/09 01:02:12;;;;;;;8.93;1.17;;;3.90;99.90;;;;;;4992096;28;20048;-89
2022/04/09 01:04:42;;;;;;;6.10;0.90;;;4.70;99.90;;;;;;4991591;28;20057;-88
2022/04/09 01:07:08;;;;;;;4.63;1.05;;;3.90;99.90;;;;;;4991651;28;20498;-87
2022/04/09 01:09:47;;;;;;;6.72;1.25;;;4.10;99.90;;;;;;4991833;28;20050;-86
2022/04/09 01:12:23;;;;;;;6.50;1.00;;;3.80;99.90;;;;;;4958246;28;20498;-91
2022/04/09 01:14:49;;;;;;;5.88;1.00;;;4.00;99.90;;;;;;4991766;28;20097;-87
2022/04/09 01:17:15;;;;;;;7.13;1.30;;;4.50;99.90;;;;;;4991617;28;20065;-87
2022/04/09 01:19:52;;;;;;;7.70;1.30;;;4.50;99.90;;;;;;4991576;28;20058;-85
2022/04/09 01:22:18;;;;;;;7.10;1.10;;;3.00;99.90;;;;;;4973525;28;20066;-84
2022/04/09 01:24:47;;;;;;;9.30;1.00;;;4.10;99.90;;;;;;4991493;28;20042;-85
2022/04/09 01:27:16;;;;;;;8.82;1.17;;;4.40;99.90;;;;;;4973668;28;20053;-85
2022/04/09 01:29:45;;;;;;;6.55;1.17;;;3.60;99.90;;;;;;4957716;28;20088;-85
2022/04/09 01:32:21;;;;;;;8.75;1.25;;;4.00;99.90;;;;;;4957179;28;20042;-91
2022/04/09 01:35:01;;;;;;;6.00;1.30;;;3.90;99.90;;;;;;4990806;28;20104;-87
2022/04/09 01:37:36;;;;;;;10.65;1.60;;;3.60;99.90;;;;;;4973583;28;20046;-84
2022/04/09 01:40:19;;;;;;;;;;;4.60;99.90;;;;;;4991575;28;20073;-90
2022/04/09 01:42:45;;;;;;;9.60;1.33;;;3.60;99.90;;;;;;4954908;28;20009;-86
2022/04/09 01:45:17;;;;;;;10.10;1.65;;;4.20;99.90;;;;;;4973782;28;20101;-86
2022/04/09 01:47:44;;;;;;;7.35;1.45;;;3.60;99.90;;;;;;4990736;28;20058;-86
2022/04/09 01:50:13;;;;;;;10.90;1.35;;;3.60;99.90;;;;;;4997824;23;20046;-85
2022/04/09 01:52:40;;;;;;;7.05;1.40;;;3.60;99.90;;;;;;4956548;28;20140;-85
2022/04/09 01:55:06;;;;;;;12.88;1.67;;;3.60;99.90;;;;;;4957673;28;20851;-86
2022/04/09 01:57:37;;;;;;;11.00;1.50;;;3.60;99.90;;;;;;4990971;28;20085;-88
2022/04/09 02:00:17;;;;;;;8.68;1.45;;;3.40;99.90;;;;;;4990808;28;20129;-86
2022/04/09 02:02:47;;;;;;;6.43;1.23;;;3.50;99.90;;;;;;4991806;28;20058;-86
2022/04/09 02:05:14;;;;;;;7.10;1.13;;;3.50;99.90;;;;;;5010446;28;20069;-86
2022/04/09 02:07:41;;;;;;;13.70;1.70;;;3.70;99.90;;;;;;4976336;28;20053;-85
2022/04/09 02:10:08;;;;;;;11.00;1.77;;;3.50;99.90;;;;;;4992511;28;20065;-85
2022/04/09 02:12:35;;;;;;;9.50;1.85;;;3.00;99.90;;;;;;4992785;28;20109;-86
2022/04/09 02:15:07;;;;;;;9.57;1.08;;;3.60;99.90;;;;;;4990918;28;20050;-86
2022/04/09 02:17:38;;;;;;;7.82;1.52;;;3.50;99.90;;;;;;4957387;28;20034;-88
2022/04/09 02:20:21;;;;;;;12.63;1.58;;;4.20;99.90;;;;;;4972990;28;20042;-86
2022/04/09 02:22:57;;;;;;;13.38;1.88;;;4.10;99.90;;;;;;4989967;28;20054;-87
2022/04/09 02:25:23;;;;;;;7.05;1.20;;;4.60;99.90;;;;;;4990597;28;20137;-86
2022/04/09 02:27:57;;;;;;;7.22;1.60;;;4.30;99.90;;;;;;4990759;28;20472;-84
2022/04/09 02:30:32;;;;;;;10.32;1.55;;;3.50;99.90;;;;;;4972659;28;20053;-87
2022/04/09 02:33:06;;;;;;;14.13;1.85;;;3.90;99.90;;;;;;4990536;28;20050;-87
2022/04/09 02:35:44;;;;;;;9.82;1.23;;;3.80;99.90;;;;;;4972854;28;20042;-86
2022/04/09 02:38:10;;;;;;;9.82;1.40;;;3.80;99.90;;;;;;4956849;28;20057;-85
2022/04/09 02:40:37;;;;;;;8.32;1.40;;;4.00;99.90;;;;;;4972621;28;20528;-86
2022/04/09 02:43:03;;;;;;;10.63;1.30;;;3.30;99.90;;;;;;4973594;28;20053;-86
2022/04/09 02:45:28;;;;;;;9.63;1.48;;;3.90;99.90;;;;;;4991882;28;20050;-86
2022/04/09 02:47:54;;;;;;;13.38;1.85;;;3.20;99.90;;;;;;4994681;28;20085;-86
2022/04/09 02:50:21;;;;;;;9.20;1.27;;;3.50;99.90;;;;;;4978853;28;20050;-86
2022/04/09 02:52:50;;;;;;;10.98;1.17;;;3.60;99.90;;;;;;5008076;28;20050;-87
2022/04/09 02:55:16;;;;;;;7.78;1.30;;;3.00;99.90;;;;;;5009042;28;20049;-87
2022/04/09 02:57:44;;;;;;;11.27;1.30;;;3.50;99.90;;;;;;5010624;28;20062;-86
2022/04/09 03:00:12;;;;;;;8.50;1.48;;;3.70;99.90;;;;;;4972624;28;20046;-86
2022/04/09 03:02:53;;;;;;;10.20;1.70;;;3.10;99.90;;;;;;4992386;28;20176;-84
2022/04/09 03:05:30;;;;;;;9.88;1.35;;;3.00;99.90;;;;;;5002588;28;20084;-89
2022/04/09 03:08:32;;;;;;;7.15;1.52;;;3.60;99.90;;;;;;4981477;28;20053;-87
2022/04/09 03:11:08;;;;;;;10.20;1.58;;;3.10;99.90;;;;;;4952133;29;20058;-89
2022/04/09 03:13:43;;;;;;;7.28;1.27;;;2.60;99.90;;;;;;4952286;29;20058;-88
2022/04/09 03:16:08;;;;;;;11.15;1.35;;;2.90;99.90;;;;;;4952314;29;20070;-87
2022/04/09 03:18:50;;;;;;;11.48;1.77;;;4.20;99.90;;;;;;4935582;29;20047;-84
2022/04/09 03:21:18;;;;;;;13.38;1.40;;;2.70;99.90;;;;;;4922284;28;20099;-85
2022/04/09 03:24:02;;;;;;;13.90;1.85;;;3.20;99.90;;;;;;4955547;28;20569;-86
2022/04/09 03:26:40;;;;;;;9.15;1.50;;;3.10;99.90;;;;;;4921155;29;20056;-85
2022/04/09 03:29:08;;;;;;;6.65;1.48;;;3.40;99.90;;;;;;4933121;28;20115;-81
2022/04/09 03:31:35;;;;;;;10.43;1.40;;;3.80;99.90;;;;;;4971230;28;20046;-84
2022/04/09 03:34:07;;;;;;;17.50;1.48;;;4.00;99.90;;;;;;4938682;29;20148;-87
2022/04/09 03:36:32;;;;;;;10.77;1.83;;;3.20;99.90;;;;;;4951667;29;20466;-84
2022/04/09 03:39:04;;;;;;;19.05;2.15;;;3.60;99.90;;;;;;4935666;29;20079;-86
2022/04/09 03:41:30;;;;;;;6.28;1.30;;;3.20;99.90;;;;;;4935201;29;20066;-84
2022/04/09 03:44:05;;;;;;;14.90;1.80;;;3.20;99.90;;;;;;4951617;29;20050;-89
2022/04/09 03:46:30;;;;;;;6.13;1.50;;;3.00;99.90;;;;;;4975967;28;20057;-85
2022/04/09 03:49:02;;;;;;;6.97;1.42;;;3.20;99.90;;;;;;4998873;28;20038;-85
2022/04/09 03:51:32;;;;;;;7.40;1.08;;;4.10;99.90;;;;;;4991589;28;20053;-86
2022/04/09 03:53:58;;;;;;;12.55;1.80;;;2.60;99.90;;;;;;4958905;28;20421;-83
2022/04/09 03:56:24;;;;;;;8.45;1.13;;;3.10;99.90;;;;;;4984798;28;20046;-84
2022/04/09 03:59:02;;;;;;;8.02;1.23;;;4.10;99.90;;;;;;4991803;28;20408;-84
2022/04/09 04:01:36;;;;;;;11.57;1.40;;;3.40;99.90;;;;;;4992555;28;20046;-83
2022/04/09 04:04:02;;;;;;;8.38;1.33;;;2.80;99.90;;;;;;4974569;28;20495;-85
2022/04/09 04:06:38;;;;;;;9.15;1.27;;;4.20;99.90;;;;;;4975014;28;20401;-82
2022/04/09 04:09:04;;;;;;;11.10;1.20;;;3.20;99.90;;;;;;4992244;28;20050;-85
2022/04/09 04:11:30;;;;;;;4.95;0.90;;;3.10;99.90;;;;;;4992648;28;20054;-83
2022/04/09 04:13:56;;;;;;;9.88;1.25;;;3.80;99.90;;;;;;4974720;28;20060;-83
2022/04/09 04:16:27;;;;;;;6.07;1.13;;;3.50;99.90;;;;;;4992278;28;20039;-84
2022/04/09 04:18:53;;;;;;;5.32;0.80;;;2.90;99.90;;;;;;4991741;28;20986;-85
2022/04/09 04:21:19;;;;;;;4.20;0.73;;;3.80;99.90;;;;;;4976300;28;20058;-83
2022/04/09 04:23:54;;;;;;;14.18;1.60;;;3.00;99.90;;;;;;4958493;28;20125;-85
2022/04/09 04:26:29;;;;;;;6.50;0.98;;;3.20;99.90;;;;;;4958881;28;20409;-86
2022/04/09 04:28:54;;;;;;;9.80;1.10;;;3.00;99.90;;;;;;4991929;28;20042;-85
2022/04/09 04:31:32;;;;;;;17.95;1.33;;;3.60;99.90;;;;;;4974682;28;20129;-84
2022/04/09 04:33:58;;;;;;;5.20;1.13;;;2.80;99.90;;;;;;4991713;28;20034;-85
2022/04/09 04:36:29;;;;;;;4.72;1.13;;;4.00;99.90;;;;;;5019777;23;20049;-86
2022/04/09 04:38:55;;;;;;;9.82;1.25;;;2.90;99.90;;;;;;5005277;23;20055;-85
2022/04/09 04:41:21;;;;;;;7.28;1.00;;;3.10;99.90;;;;;;4992038;28;20424;-85
2022/04/09 04:43:56;;;;;;;11.35;1.48;;;3.10;99.90;;;;;;4973808;28;20053;-84
2022/04/09 04:46:30;;;;;;;10.57;1.17;;;2.90;99.90;;;;;;4990864;28;20504;-81
2022/04/09 04:49:00;;;;;;;7.53;0.90;;;3.10;99.90;;;;;;4973863;28;20046;-87
2022/04/09 04:51:25;;;;;;;7.82;1.20;;;3.70;99.90;;;;;;4946626;28;20094;-86
2022/04/09 04:53:58;;;;;;;7.72;0.98;;;3.00;99.90;;;;;;4974052;28;20098;-85
2022/04/09 04:56:24;;;;;;;6.88;1.10;;;2.80;99.90;;;;;;4973714;28;20130;-85
2022/04/09 04:58:58;;;;;;;4.15;0.80;;;2.90;99.90;;;;;;4957600;28;20054;-85
2022/04/09 05:01:27;;;;;;;5.90;0.80;;;3.60;99.90;;;;;;4957232;28;20489;-83
2022/04/09 05:03:53;;;;;;;8.80;1.15;;;3.80;99.90;;;;;;4953978;28;20062;-85
2022/04/09 05:06:19;;;;;;;10.90;1.20;;;3.60;99.90;;;;;;4954698;28;20129;-82
2022/04/09 05:08:54;;;;;;;7.20;1.10;;;2.80;99.90;;;;;;4938061;28;20047;-83
2022/04/09 05:11:32;;;;;;;9.85;1.45;;;2.80;99.90;;;;;;4978116;28;20050;-84
2022/04/09 05:13:58;;;;;;;12.00;1.50;;;2.90;99.90;;;;;;4973979;28;20679;-86
2022/04/09 05:16:27;;;;;;;12.95;1.40;;;3.60;99.90;;;;;;4962602;28;20050;-84
2022/04/09 05:18:52;;;;;;;10.65;1.55;;;3.30;99.90;;;;;;4938857;28;20058;-85
2022/04/09 05:21:22;;;;;;;8.55;1.50;;;3.00;99.90;;;;;;4953917;28;20065;-84
2022/04/09 05:23:57;;;;;;;7.47;1.55;;;3.00;99.90;;;;;;4938216;28;20066;-85
2022/04/09 05:26:29;;;;;;;;;;;2.80;99.90;;;;;;4959793;28;20488;-83
2022/04/09 05:28:55;;;;;;;10.93;1.65;;;3.10;99.90;;;;;;4990984;28;19922;-86
2022/04/09 05:31:29;;;;;;;13.30;1.40;;;4.00;99.90;;;;;;4957079;28;20054;-87
2022/04/09 05:34:11;;;;;;;11.43;2.15;;;3.10;99.90;;;;;;4991160;28;20050;-84
2022/04/09 05:36:47;;;;;;;11.48;1.60;;;3.10;99.90;;;;;;4972551;28;20054;-82
2022/04/09 05:39:25;;;;;;;7.78;1.55;;;4.10;99.90;;;;;;4953568;28;20058;-84
2022/04/09 05:41:58;;;;;;;6.55;1.40;;;3.30;99.90;;;;;;4953895;28;20485;-88
2022/04/09 05:44:24;;;;;;;14.35;1.60;;;4.00;99.90;;;;;;4954087;28;20130;-85
2022/04/09 05:46:50;;;;;;;18.02;1.80;;;4.40;99.90;;;;;;4971198;28;20130;-84
2022/04/09 05:49:15;;;;;;;11.50;1.25;;;4.60;99.90;;;;;;4972598;28;20382;-84
2022/04/09 05:51:59;;;;;;;13.95;1.40;;;3.70;99.90;;;;;;4957338;28;20046;-86
2022/04/09 05:54:28;;;;;;;12.27;1.50;;;3.90;99.90;;;;;;4971965;28;20125;-85
2022/04/09 05:59:37;;;;;;;14.50;1.98;;;4.00;99.90;;;;;;4984675;23;20113;-85
2022/04/09 06:02:03;;;;;;;14.80;1.52;;;4.00;99.90;;;;;;4937822;28;20501;-86
2022/04/09 06:04:28;;;;;;;9.52;1.55;;;4.00;99.90;;;;;;4950319;29;20106;-85
2022/04/09 06:07:00;;;;;;;11.50;1.60;;;4.60;99.90;;;;;;4952264;29;20051;-87
2022/04/09 06:09:33;;;;;;;9.75;2.55;;;4.10;99.90;;;;;;5002477;23;20057;-89
2022/04/09 06:12:18;;;;;;;12.50;1.80;;;3.90;99.90;;;;;;5008569;28;20077;-86
2022/04/09 06:14:44;;;;;;;15.85;1.75;;;4.50;99.90;;;;;;4976527;28;20076;-86
2022/04/09 06:17:10;;;;;;;9.35;1.33;;;5.00;99.90;;;;;;4992688;28;20532;-85
2022/04/09 06:19:48;;;;;;;18.15;1.92;;;4.10;99.90;;;;;;5010272;28;20076;-86
2022/04/09 06:22:23;;;;;;;13.05;1.70;;;5.20;99.90;;;;;;4997083;28;20050;-89
2022/04/09 06:24:49;;;;;;;;;;;5.00;99.90;;;;;;5015540;28;20049;-84
2022/04/09 06:27:28;;;;;;;14.15;2.25;;;4.60;99.90;;;;;;5010967;28;19928;-86
2022/04/09 06:30:07;;;;;;;11.15;1.50;;;5.00;99.90;;;;;;5016305;28;20053;-91
2022/04/09 06:32:35;;;;;;;12.00;1.30;;;4.60;99.90;;;;;;5014234;28;20076;-86
2022/04/09 06:35:01;;;;;;;11.20;2.10;;;5.30;99.90;;;;;;5034058;28;20049;-84
2022/04/09 06:37:42;;;;;;;15.77;2.30;;;5.80;99.90;;;;;;5016424;28;20484;-87
2022/04/09 06:40:11;;;;;;;10.57;2.28;;;5.00;99.90;;;;;;4998856;28;20045;-87
2022/04/09 06:42:37;;;;;;;12.48;2.28;;;5.60;99.90;;;;;;4999028;28;20129;-84
2022/04/09 06:45:04;;;;;;;9.20;1.90;;;6.00;99.90;;;;;;5015924;28;20142;-86
2022/04/09 06:47:42;;;;;;;12.60;1.80;;;5.10;99.90;;;;;;5008005;28;20057;-89
2022/04/09 06:50:12;;;;;;;10.43;1.83;;;5.10;99.90;;;;;;4996078;28;20111;-86
2022/04/09 06:52:38;;;;;;;10.52;1.88;;;5.10;99.90;;;;;;5014735;23;20062;-83
2022/04/09 06:55:11;;;;;;;10.40;1.83;;;5.30;99.90;;;;;;4973486;23;20046;-85
2022/04/09 06:58:02;;;;;;;11.35;1.50;;;5.80;99.90;;;;;;4976230;28;20050;-85
2022/04/09 07:00:33;;;;;;;7.20;1.42;;;6.20;99.90;;;;;;4975529;28;20073;-88
2022/04/09 07:03:00;;;;;;;9.00;1.35;;;6.00;99.90;;;;;;5012112;23;20530;-84
2022/04/09 07:05:32;;;;;;;19.10;2.20;;;5.60;99.90;;;;;;4998720;28;20140;-87
2022/04/09 07:07:58;;;;;;;8.23;2.05;;;6.10;99.90;;;;;;5033229;28;20068;-84
2022/04/09 07:10:26;;;;;;;11.45;1.58;;;5.70;99.90;;;;;;5017692;28;20481;-85
2022/04/09 07:13:05;;;;;;;11.07;1.33;;;6.60;99.90;;;;;;4995378;28;20037;-85
2022/04/09 07:15:32;;;;;;;9.60;1.60;;;6.20;99.90;;;;;;4995703;28;20120;-86
2022/04/09 07:17:58;;;;;;;12.18;1.40;;;7.00;99.90;;;;;;4995259;28;20042;-86
2022/04/09 07:20:40;;;;;;;6.40;1.00;;;7.20;99.90;;;;;;4979013;28;20078;-85
2022/04/09 07:23:20;;;;;;;9.98;1.15;;;6.90;99.90;;;;;;5010219;28;20053;-84
2022/04/09 07:25:46;;;;;;;8.60;1.20;;;6.20;99.90;;;;;;4998349;28;20042;-84
2022/04/09 07:28:11;;;;;;;6.18;1.17;;;6.90;99.90;;;;;;5032242;28;20056;-85
2022/04/09 07:30:38;;;;;;;15.18;1.50;;;7.00;99.90;;;;;;5032478;28;20037;-87
2022/04/09 07:33:07;;;;;;;8.07;1.02;;;6.30;99.90;;;;;;5031462;28;20049;-87
2022/04/09 07:35:39;;;;;;;12.52;1.45;;;7.00;99.90;;;;;;5014475;28;20041;-83
2022/04/09 07:38:07;;;;;;;13.52;1.52;;;6.40;99.90;;;;;;5014419;28;20095;-84
2022/04/09 07:40:45;;;;;;;9.95;1.40;;;6.40;99.90;;;;;;4998431;28;20056;-85
2022/04/09 07:43:11;;;;;;;14.40;1.40;;;6.80;99.90;;;;;;5014386;28;20084;-83
2022/04/09 07:45:40;;;;;;;12.35;1.40;;;7.20;99.90;;;;;;5031964;28;20107;-82
2022/04/09 07:48:06;;;;;;;11.85;1.67;;;6.50;99.90;;;;;;5014280;28;20049;-84
2022/04/09 07:50:33;;;;;;;8.82;1.42;;;6.60;99.90;;;;;;4992297;28;20045;-85
2022/04/09 07:52:59;;;;;;;16.10;1.75;;;6.70;99.90;;;;;;5014925;28;20924;-86
2022/04/09 07:55:25;;;;;;;15.65;2.03;;;7.80;99.90;;;;;;5014274;28;20053;-86
2022/04/09 07:58:01;;;;;;;18.58;1.80;;;7.00;99.90;;;;;;5012406;28;20049;-83
2022/04/09 08:00:33;;;;;;;10.02;1.77;;;7.00;99.90;;;;;;5012034;28;20054;-84
2022/04/09 08:02:59;;;;;;;12.73;1.98;;;7.00;99.90;;;;;;5011965;28;20046;-84
2022/04/09 08:05:24;;;;;;;12.25;1.77;;;7.30;99.90;;;;;;4994427;28;20523;-87
2022/04/09 08:07:57;;;;;;;12.85;2.00;;;6.90;99.90;;;;;;5011479;28;20068;-88
2022/04/09 08:10:23;;;;;;;11.75;1.45;;;8.00;99.90;;;;;;4978044;28;20049;-84
2022/04/09 08:13:07;;;;;;;8.93;1.33;;;7.90;99.90;;;;;;4978810;28;20072;-86
2022/04/09 08:15:45;;;;;;;15.18;1.67;;;7.00;99.90;;;;;;4993948;28;20515;-85
2022/04/09 08:18:11;;;;;;;11.43;1.30;;;8.00;99.90;;;;;;5012033;28;20393;-88
2022/04/09 08:20:37;;;;;;;14.05;1.30;;;7.10;99.90;;;;;;4977550;28;20066;-85
2022/04/09 08:23:09;;;;;;;7.97;1.40;;;7.70;99.90;;;;;;4977656;28;20045;-84
2022/04/09 08:25:38;;;;;;;9.70;1.75;;;7.30;99.90;;;;;;4993992;28;20057;-84
2022/04/09 08:28:13;;;;;;;13.75;2.05;;;7.30;99.90;;;;;;5028785;28;20053;-86
2022/04/09 08:30:41;;;;;;;14.02;1.95;;;7.20;99.90;;;;;;5014698;28;20064;-85
2022/04/09 08:33:07;;;;;;;11.77;2.20;;;7.30;99.90;;;;;;5031193;28;20045;-83
2022/04/09 08:35:43;;;;;;;12.55;1.65;;;7.50;99.90;;;;;;5012425;28;20045;-86
2022/04/09 08:38:14;;;;;;;9.95;1.52;;;8.30;99.90;;;;;;4992332;28;20049;-84
2022/04/09 08:40:44;;;;;;;11.30;1.60;;;7.60;99.90;;;;;;5026224;28;20074;-84
2022/04/09 08:43:10;;;;;;;12.00;1.55;;;8.30;99.90;;;;;;5025809;28;20073;-84
2022/04/09 08:45:39;;;;;;;9.27;1.30;;;8.70;99.90;;;;;;5006850;28;20042;-85
2022/04/09 08:48:06;;;;;;;11.52;1.40;;;8.80;99.90;;;;;;5019042;28;20049;-84
2022/04/09 08:50:43;;;;;;;11.88;2.05;;;8.30;99.90;;;;;;5017890;28;20175;-86
2022/04/09 08:53:34;;;;;;;15.15;1.92;;;9.20;99.90;;;;;;5016081;28;20081;-84
2022/04/09 08:56:05;;;;;;;11.15;2.10;;;8.50;99.90;;;;;;5030495;28;20046;-84
2022/04/09 08:58:33;;;;;;;16.88;2.13;;;8.40;99.90;;;;;;5011623;28;20608;-82
2022/04/09 09:01:08;;;;;;;10.48;1.73;;;7.90;99.90;;;;;;5022287;28;20112;-83
2022/04/09 09:03:35;;;;;;;;;;;8.30;99.90;;;;;;5011101;28;20093;-85
2022/04/09 09:06:39;;;;;;;14.82;1.90;;;7.60;99.90;;;;;;5006001;28;19924;-84
2022/04/09 09:09:23;;;;;;;17.45;2.00;;;7.90;99.90;;;;;;5012823;28;20128;-86
2022/04/09 09:11:54;;;;;;;9.85;1.83;;;8.10;99.90;;;;;;5012924;28;20491;-90
2022/04/09 09:14:49;;;;;;;10.73;1.50;;;8.00;99.90;;;;;;5031054;28;20399;-90
2022/04/09 09:17:29;;;;;;;10.65;1.55;;;7.70;99.90;;;;;;5013704;28;20111;-88
2022/04/09 09:19:55;;;;;;;5.68;1.02;;;7.70;99.90;;;;;;4995940;28;20057;-88
2022/04/09 09:22:20;;;;;;;8.93;1.58;;;7.50;99.90;;;;;;5030813;28;20057;-87
2022/04/09 09:28:35;;;;;;;12.43;1.83;;;8.10;99.90;;;;;;4949755;29;20065;-87
2022/04/09 09:31:15;;;;;;;15.68;1.70;;;8.00;99.90;;;;;;4934095;29;20040;-88
2022/04/09 09:34:34;;;;;;;12.45;1.60;;;8.20;99.90;;;;;;4895384;28;20511;-85
2022/04/09 09:37:19;;;;;;;9.88;1.20;;;8.80;99.90;;;;;;4877664;29;20405;-85
2022/04/09 09:39:57;;;;;;;10.30;1.70;;;8.30;99.90;;;;;;5260370;23;20056;-85
2022/04/09 09:42:44;;;;;;;14.15;1.52;;;8.60;99.90;;;;;;4983814;23;20466;-89
2022/04/09 09:45:12;;;;;;;17.35;2.00;;;8.40;99.90;;;;;;4909770;29;20160;-87
2022/04/09 09:48:37;;;;;;;10.10;2.22;;;8.20;99.90;;;;;;4915119;29;20491;-88
2022/04/09 09:51:23;;;;;;;8.15;1.15;;;8.20;99.90;;;;;;4905034;29;20063;-85
2022/04/09 09:54:15;;;;;;;4.60;0.80;;;8.60;99.90;;;;;;4930613;29;20048;-86
2022/04/09 09:56:47;;;;;;;4.93;0.57;;;7.50;99.90;;;;;;4900099;29;20059;-88
2022/04/09 09:59:31;;;;;;;3.22;0.63;;;8.60;99.90;;;;;;4912010;29;20462;-87
2022/04/09 10:02:02;;;;;;;3.40;0.40;;;7.80;99.90;;;;;;4896681;29;20052;-86
2022/04/09 10:04:47;;;;;;;2.17;0.50;;;8.20;99.90;;;;;;4881156;29;20340;-86
2022/04/09 10:07:14;;;;;;;3.38;0.60;;;9.20;99.90;;;;;;4896613;29;20573;-83
2022/04/09 10:09:53;;;;;;;1.92;0.50;;;9.30;99.90;;;;;;4876183;29;20083;-85
2022/04/09 10:12:25;;;;;;;2.30;0.35;;;8.50;99.90;;;;;;4896065;29;20109;-85
2022/04/09 10:15:00;;;;;;;3.50;0.40;;;9.20;99.90;;;;;;4896562;29;20166;-84
2022/04/09 10:17:27;;;;;;;4.22;0.50;;;9.70;99.90;;;;;;4908769;23;20053;-85
2022/04/09 10:20:02;;;;;;;8.50;0.73;;;9.10;99.90;;;;;;4941491;28;20046;-85
2022/04/09 10:22:43;;;;;;;3.88;0.98;;;9.70;99.90;;;;;;4957797;28;20153;-84
2022/04/09 10:25:24;;;;;;;5.95;0.95;;;10.20;99.90;;;;;;4962209;23;20173;-87
2022/04/09 10:27:53;;;;;;;6.07;0.98;;;9.40;99.90;;;;;;4941122;28;20104;-85
2022/04/09 10:30:41;;;;;;;6.60;1.35;;;9.80;99.90;;;;;;4941807;28;20517;-84
2022/04/09 10:33:38;;;;;;;5.63;0.80;;;10.10;99.90;;;;;;4974917;28;20046;-85
2022/04/09 10:36:04;;;;;;;3.90;0.70;;;9.30;99.90;;;;;;4975057;28;20521;-84
2022/04/09 10:38:41;;;;;;;6.40;0.73;;;9.40;99.90;;;;;;4975083;28;20057;-85
2022/04/09 10:41:10;;;;;;;4.38;0.93;;;9.40;99.90;;;;;;4957260;28;20070;-84
2022/04/09 10:43:37;;;;;;;3.97;0.95;;;10.10;99.90;;;;;;4957035;28;20043;-86
2022/04/09 10:46:06;;;;;;;5.10;0.77;;;9.20;99.90;;;;;;4940615;28;20042;-85
2022/04/09 10:48:47;;;;;;;4.65;0.88;;;9.40;99.90;;;;;;4962727;28;20094;-85
2022/04/09 10:51:57;;;;;;;8.30;1.30;;;9.70;99.90;;;;;;4958818;28;20058;-86
2022/04/09 10:54:29;;;;;;;8.38;0.70;;;9.00;99.90;;;;;;4974623;28;20042;-85
2022/04/09 10:57:26;;;;;;;10.35;1.33;;;9.30;99.90;;;;;;4956948;28;20517;-86
2022/04/09 11:00:00;;;;;;;6.60;1.35;;;9.80;99.90;;;;;;4973643;28;20085;-87
2022/04/09 11:02:38;;;;;;;12.65;1.92;;;9.10;99.90;;;;;;4956863;28;20514;-89
2022/04/09 11:05:22;;;;;;;9.00;0.95;;;8.90;99.90;;;;;;4956902;28;20097;-85
2022/04/09 11:08:07;;;;;;;8.07;1.20;;;8.90;99.90;;;;;;4972031;28;20058;-84
2022/04/09 11:10:51;;;;;;;10.18;1.33;;;8.90;99.90;;;;;;4974190;28;20047;-84
2022/04/09 11:13:32;;;;;;;8.15;1.10;;;9.80;99.90;;;;;;4957030;28;20058;-84
2022/04/09 11:16:07;;;;;;;11.05;1.25;;;10.10;99.90;;;;;;4942032;28;20137;-84
2022/04/09 11:18:47;;;;;;;12.20;1.40;;;10.00;99.90;;;;;;4974504;28;20058;-85
2022/04/09 11:21:13;;;;;;;8.27;1.63;;;9.00;99.90;;;;;;4989064;28;20537;-84
2022/04/09 11:23:44;;;;;;;7.15;1.20;;;9.40;99.90;;;;;;4973842;28;20710;-85
2022/04/09 11:26:17;;;;;;;4.20;0.88;;;8.90;99.90;;;;;;4973873;28;20086;-85
2022/04/09 11:28:54;;;;;;;6.55;1.30;;;9.40;99.90;;;;;;4988889;28;20055;-86
2022/04/09 11:31:21;;;;;;;7.03;1.08;;;9.60;99.90;;;;;;4973384;28;20430;-84
2022/04/09 11:34:04;;;;;;;5.78;0.70;;;9.80;99.90;;;;;;4959880;23;20416;-84
2022/04/09 11:36:36;;;;;;;4.05;0.88;;;9.30;99.90;;;;;;4952553;29;20106;-85
2022/04/09 11:39:02;;;;;;;5.93;0.82;;;9.40;99.90;;;;;;4953875;28;20398;-85
2022/04/09 11:41:27;;;;;;;5.22;0.77;;;10.00;99.90;;;;;;4951611;28;20047;-85
2022/04/09 11:44:27;;;;;;;6.70;1.08;;;9.60;99.90;;;;;;4955997;28;20062;-83
2022/04/09 11:46:53;;;;;;;6.32;0.80;;;8.90;99.90;;;;;;4970655;28;20379;-84
2022/04/09 11:49:31;;;;;;;8.02;1.00;;;9.40;99.90;;;;;;4952617;29;20059;-85
2022/04/09 11:51:57;;;;;;;12.40;1.42;;;8.80;99.90;;;;;;4954308;29;20055;-85
2022/04/09 11:54:50;;;;;;;11.07;1.42;;;8.70;99.90;;;;;;4953979;29;20058;-84
2022/04/09 11:57:15;;;;;;;8.43;0.82;;;8.30;99.90;;;;;;4953667;29;20059;-83
2022/04/09 11:59:41;;;;;;;7.90;0.88;;;8.40;99.90;;;;;;4953629;29;20573;-83
2022/04/09 12:02:20;;;;;;;8.40;1.10;;;8.60;99.90;;;;;;4935572;29;20118;-83
2022/04/09 12:04:47;;;;;;;4.68;0.65;;;8.70;99.90;;;;;;4953831;29;20047;-85
2022/04/09 12:07:12;;;;;;;4.10;0.75;;;9.80;99.90;;;;;;4951847;28;20107;-85
2022/04/09 12:09:38;;;;;;;4.65;0.80;;;9.70;99.90;;;;;;4972939;28;20501;-84
2022/04/09 12:12:08;;;;;;;4.88;0.65;;;10.10;99.90;;;;;;4972992;28;20485;-84
2022/04/09 12:15:00;;;;;;;;;;;;;;;;;;;;;
2022/04/09 12:17:36;;;;;;;;;;;9.60;99.90;;;;;;4955198;28;20053;-84
2022/04/09 12:20:36;;;;;;;2.83;0.60;;;9.80;99.90;;;;;;4972480;28;20681;-85
2022/04/09 12:23:05;;;;;;;4.88;0.73;;;10.00;99.90;;;;;;4939542;28;20090;-84
2022/04/09 12:25:57;;;;;;;5.68;0.80;;;9.80;99.90;;;;;;4939496;28;20081;-85
2022/04/09 12:28:25;;;;;;;3.25;0.60;;;9.70;99.90;;;;;;4939184;28;20454;-83
2022/04/09 12:30:53;;;;;;;7.00;0.90;;;9.80;99.90;;;;;;4972644;28;20077;-84
2022/04/09 12:33:20;;;;;;;4.70;0.75;;;9.90;99.90;;;;;;4911659;29;20155;-85
2022/04/09 12:35:49;;;;;;;4.95;0.68;;;9.70;99.90;;;;;;4912635;29;20059;-83
2022/04/09 12:38:30;;;;;;;6.82;0.93;;;9.10;99.90;;;;;;4912541;29;20467;-89
2022/04/09 12:41:04;;;;;;;10.93;1.25;;;9.80;99.90;;;;;;4880567;29;20074;-85
2022/04/09 12:43:52;;;;;;;4.40;0.75;;;9.10;99.90;;;;;;4908278;29;20460;-83
2022/04/09 12:46:31;;;;;;;5.72;0.73;;;9.40;99.90;;;;;;4912855;29;20542;-85
2022/04/09 12:49:15;;;;;;;6.75;1.25;;;9.70;99.90;;;;;;4896406;29;20635;-85
2022/04/09 12:51:41;;;;;;;5.90;1.05;;;9.70;99.90;;;;;;4912748;29;20055;-87
2022/04/09 12:54:07;;;;;;;6.43;1.05;;;10.20;99.90;;;;;;4912647;29;20066;-84
2022/04/09 12:56:36;;;;;;;11.88;1.15;;;10.50;99.90;;;;;;4912619;29;20044;-86
2022/04/09 12:59:09;;;;;;;8.15;1.30;;;10.80;99.90;;;;;;4912252;29;20056;-85
2022/04/09 13:01:44;;;;;;;9.43;1.00;;;10.80;99.90;;;;;;4912426;29;20563;-85
2022/04/09 13:04:10;;;;;;;11.60;1.23;;;10.10;99.90;;;;;;4920847;28;20540;-86
2022/04/09 13:06:51;;;;;;;8.80;0.90;;;9.90;99.90;;;;;;4938748;28;20055;-86
2022/04/09 13:09:17;;;;;;;9.68;1.55;;;10.30;99.90;;;;;;4954645;28;20129;-88
2022/04/09 13:11:42;;;;;;;7.20;1.30;;;9.70;99.90;;;;;;4972160;28;20383;-85
2022/04/09 13:14:08;;;;;;;5.07;1.05;;;9.30;99.90;;;;;;4971947;28;20101;-86
2022/04/09 13:16:34;;;;;;;9.00;0.95;;;9.30;99.90;;;;;;4972042;28;20518;-85
2022/04/09 13:19:10;;;;;;;8.35;1.05;;;9.20;99.90;;;;;;4939106;28;20055;-84
2022/04/09 13:21:40;;;;;;;3.88;1.27;;;9.90;99.90;;;;;;4971576;28;20062;-85
2022/04/09 13:24:11;;;;;;;3.55;0.70;;;9.80;99.90;;;;;;4971745;28;20413;-86
2022/04/09 13:26:37;;;;;;;6.10;1.25;;;9.50;99.90;;;;;;4986666;28;20090;-86
2022/04/09 13:29:03;;;;;;;5.38;0.77;;;10.30;99.90;;;;;;4971666;28;20089;-85
2022/04/09 13:31:31;;;;;;;5.22;1.05;;;9.90;99.90;;;;;;4929889;29;20142;-85
2022/04/09 13:34:04;;;;;;;5.20;0.80;;;9.50;99.90;;;;;;4913966;29;20172;-87